sensor_id;sensor_type;location;lat;lon;timestamp;P1;durP1;ratioP1;P2;durP2;ratioP2
21754;SDS011;11039;50.028;19.938;2022-09-01T00:00:43;3.53;;;2.22;;
21754;SDS011;11039;50.028;19.938;2022-09-01T00:03:10;2.92;;;2.00;;
21754;SDS011;11039;50.028;19.938;2022-09-01T00:05:36;6.35;;;1.98;;
21754;SDS011;11039;50.028;19.938;2022-09-01T00:08:03;3.25;;;2.10;;
21754;SDS011;11039;50.028;19.938;2022-09-01T00:10:29;3.92;;;2.10;;
21754;SDS011;11039;50.028;19.938;2022-09-01T00:12:55;2.72;;;1.80;;
21754;SDS011;11039;50.028;19.938;2022-09-01T00:15:21;3.58;;;2.03;;
21754;SDS011;11039;50.028;19.938;2022-09-01T00:17:47;2.95;;;1.95;;
21754;SDS011;11039;50.028;19.938;2022-09-01T00:20:14;3.13;;;1.85;;
21754;SDS011;11039;50.028;19.938;2022-09-01T00:22:40;4.65;;;2.20;;
21754;SDS011;11039;50.028;19.938;2022-09-01T00:25:06;2.90;;;1.88;;
21754;SDS011;11039;50.028;19.938;2022-09-01T00:27:33;3.97;;;2.35;;
21754;SDS011;11039;50.028;19.938;2022-09-01T00:29:59;4.57;;;2.20;;
21754;SDS011;11039;50.028;19.938;2022-09-01T00:32:25;4.05;;;2.30;;
21754;SDS011;11039;50.028;19.938;2022-09-01T00:34:51;3.70;;;2.10;;
21754;SDS011;11039;50.028;19.938;2022-09-01T00:37:17;3.92;;;2.00;;
21754;SDS011;11039;50.028;19.938;2022-09-01T00:39:43;5.40;;;2.40;;
21754;SDS011;11039;50.028;19.938;2022-09-01T00:42:09;3.67;;;2.45;;
21754;SDS011;11039;50.028;19.938;2022-09-01T00:44:36;3.90;;;2.38;;
21754;SDS011;11039;50.028;19.938;2022-09-01T00:47:02;4.57;;;2.30;;
21754;SDS011;11039;50.028;19.938;2022-09-01T00:49:34;3.67;;;2.28;;
21754;SDS011;11039;50.028;19.938;2022-09-01T00:52:08;5.28;;;2.45;;
21754;SDS011;11039;50.028;19.938;2022-09-01T00:54:37;4.88;;;2.40;;
21754;SDS011;11039;50.028;19.938;2022-09-01T00:57:04;3.53;;;2.10;;
21754;SDS011;11039;50.028;19.938;2022-09-01T00:59:30;4.05;;;2.38;;
21754;SDS011;11039;50.028;19.938;2022-09-01T01:01:57;3.38;;;2.13;;
21754;SDS011;11039;50.028;19.938;2022-09-01T01:04:23;3.92;;;2.10;;
21754;SDS011;11039;50.028;19.938;2022-09-01T01:06:50;5.07;;;1.92;;
21754;SDS011;11039;50.028;19.938;2022-09-01T01:09:23;4.00;;;2.42;;
21754;SDS011;11039;50.028;19.938;2022-09-01T01:11:49;3.40;;;2.30;;
21754;SDS011;11039;50.028;19.938;2022-09-01T01:14:16;4.40;;;2.20;;
21754;SDS011;11039;50.028;19.938;2022-09-01T01:16:44;3.42;;;1.80;;
21754;SDS011;11039;50.028;19.938;2022-09-01T01:21:59;3.92;;;2.13;;
21754;SDS011;11039;50.028;19.938;2022-09-01T01:24:44;3.75;;;2.00;;
21754;SDS011;11039;50.028;19.938;2022-09-01T01:27:11;3.55;;;2.03;;
21754;SDS011;11039;50.028;19.938;2022-09-01T01:29:38;3.53;;;2.10;;
21754;SDS011;11039;50.028;19.938;2022-09-01T01:32:05;3.53;;;1.85;;
21754;SDS011;11039;50.028;19.938;2022-09-01T01:34:37;4.13;;;2.30;;
21754;SDS011;11039;50.028;19.938;2022-09-01T01:37:07;3.78;;;1.90;;
21754;SDS011;11039;50.028;19.938;2022-09-01T01:39:35;3.42;;;2.10;;
21754;SDS011;11039;50.028;19.938;2022-09-01T01:42:05;3.70;;;2.08;;
21754;SDS011;11039;50.028;19.938;2022-09-01T01:44:33;2.88;;;1.88;;
21754;SDS011;11039;50.028;19.938;2022-09-01T01:47:01;3.80;;;2.35;;
21754;SDS011;11039;50.028;19.938;2022-09-01T01:49:29;3.20;;;2.20;;
21754;SDS011;11039;50.028;19.938;2022-09-01T01:51:56;3.10;;;2.10;;
21754;SDS011;11039;50.028;19.938;2022-09-01T01:54:23;3.45;;;1.90;;
21754;SDS011;11039;50.028;19.938;2022-09-01T01:56:50;3.65;;;1.95;;
21754;SDS011;11039;50.028;19.938;2022-09-01T01:59:16;2.53;;;1.73;;
21754;SDS011;11039;50.028;19.938;2022-09-01T02:01:43;3.03;;;1.88;;
21754;SDS011;11039;50.028;19.938;2022-09-01T02:04:15;3.42;;;2.15;;
21754;SDS011;11039;50.028;19.938;2022-09-01T02:06:42;3.08;;;1.85;;
21754;SDS011;11039;50.028;19.938;2022-09-01T02:09:12;3.10;;;1.98;;
21754;SDS011;11039;50.028;19.938;2022-09-01T02:11:39;2.97;;;1.70;;
21754;SDS011;11039;50.028;19.938;2022-09-01T02:14:06;2.90;;;1.83;;
21754;SDS011;11039;50.028;19.938;2022-09-01T02:16:32;2.83;;;1.90;;
21754;SDS011;11039;50.028;19.938;2022-09-01T02:18:59;2.83;;;1.80;;
21754;SDS011;11039;50.028;19.938;2022-09-01T02:21:26;2.80;;;1.88;;
21754;SDS011;11039;50.028;19.938;2022-09-01T02:23:53;3.78;;;1.85;;
21754;SDS011;11039;50.028;19.938;2022-09-01T02:26:25;3.55;;;1.58;;
21754;SDS011;11039;50.028;19.938;2022-09-01T02:28:55;5.20;;;1.98;;
21754;SDS011;11039;50.028;19.938;2022-09-01T02:31:22;3.30;;;1.60;;
21754;SDS011;11039;50.028;19.938;2022-09-01T02:33:48;3.67;;;2.00;;
21754;SDS011;11039;50.028;19.938;2022-09-01T02:36:15;3.30;;;1.73;;
21754;SDS011;11039;50.028;19.938;2022-09-01T02:38:42;2.88;;;1.88;;
21754;SDS011;11039;50.028;19.938;2022-09-01T02:41:10;2.28;;;1.58;;
21754;SDS011;11039;50.028;19.938;2022-09-01T02:43:37;2.47;;;1.50;;
21754;SDS011;11039;50.028;19.938;2022-09-01T02:46:03;4.13;;;1.85;;
21754;SDS011;11039;50.028;19.938;2022-09-01T02:48:36;2.47;;;1.38;;
21754;SDS011;11039;50.028;19.938;2022-09-01T02:51:08;4.05;;;1.80;;
21754;SDS011;11039;50.028;19.938;2022-09-01T02:53:35;3.60;;;1.70;;
21754;SDS011;11039;50.028;19.938;2022-09-01T02:56:02;3.22;;;1.60;;
21754;SDS011;11039;50.028;19.938;2022-09-01T02:58:33;2.97;;;1.50;;
21754;SDS011;11039;50.028;19.938;2022-09-01T03:01:09;2.85;;;1.30;;
21754;SDS011;11039;50.028;19.938;2022-09-01T03:03:35;2.45;;;1.50;;
21754;SDS011;11039;50.028;19.938;2022-09-01T03:06:02;3.47;;;1.38;;
21754;SDS011;11039;50.028;19.938;2022-09-01T03:08:30;2.78;;;1.75;;
21754;SDS011;11039;50.028;19.938;2022-09-01T03:11:02;3.13;;;1.35;;
21754;SDS011;11039;50.028;19.938;2022-09-01T03:13:32;2.75;;;1.30;;
21754;SDS011;11039;50.028;19.938;2022-09-01T03:15:58;2.47;;;1.60;;
21754;SDS011;11039;50.028;19.938;2022-09-01T03:18:24;3.10;;;1.60;;
21754;SDS011;11039;50.028;19.938;2022-09-01T03:20:50;2.42;;;1.52;;
21754;SDS011;11039;50.028;19.938;2022-09-01T03:23:17;2.72;;;1.45;;
21754;SDS011;11039;50.028;19.938;2022-09-01T03:25:43;3.65;;;1.75;;
21754;SDS011;11039;50.028;19.938;2022-09-01T03:28:10;2.33;;;1.60;;
21754;SDS011;11039;50.028;19.938;2022-09-01T03:30:37;1.85;;;1.20;;
21754;SDS011;11039;50.028;19.938;2022-09-01T03:33:04;2.20;;;1.30;;
21754;SDS011;11039;50.028;19.938;2022-09-01T03:35:31;2.78;;;1.42;;
21754;SDS011;11039;50.028;19.938;2022-09-01T03:37:57;2.13;;;1.02;;
21754;SDS011;11039;50.028;19.938;2022-09-01T03:40:24;2.15;;;1.30;;
21754;SDS011;11039;50.028;19.938;2022-09-01T03:42:52;1.77;;;1.10;;
21754;SDS011;11039;50.028;19.938;2022-09-01T03:45:19;1.98;;;1.25;;
21754;SDS011;11039;50.028;19.938;2022-09-01T03:47:46;3.28;;;1.58;;
21754;SDS011;11039;50.028;19.938;2022-09-01T03:50:14;2.17;;;1.20;;
21754;SDS011;11039;50.028;19.938;2022-09-01T03:52:48;2.33;;;1.30;;
21754;SDS011;11039;50.028;19.938;2022-09-01T03:55:15;2.33;;;1.45;;
21754;SDS011;11039;50.028;19.938;2022-09-01T03:57:51;1.70;;;1.00;;
21754;SDS011;11039;50.028;19.938;2022-09-01T04:00:18;3.28;;;1.48;;
21754;SDS011;11039;50.028;19.938;2022-09-01T04:02:47;1.98;;;1.30;;
21754;SDS011;11039;50.028;19.938;2022-09-01T04:05:14;2.40;;;1.20;;
21754;SDS011;11039;50.028;19.938;2022-09-01T04:07:40;2.72;;;1.30;;
21754;SDS011;11039;50.028;19.938;2022-09-01T04:10:10;2.50;;;1.13;;
21754;SDS011;11039;50.028;19.938;2022-09-01T04:12:36;2.20;;;1.17;;
21754;SDS011;11039;50.028;19.938;2022-09-01T04:15:03;2.30;;;1.08;;
21754;SDS011;11039;50.028;19.938;2022-09-01T04:17:30;1.85;;;1.00;;
21754;SDS011;11039;50.028;19.938;2022-09-01T04:20:14;2.42;;;1.25;;
21754;SDS011;11039;50.028;19.938;2022-09-01T04:22:44;1.80;;;1.00;;
21754;SDS011;11039;50.028;19.938;2022-09-01T04:25:11;2.47;;;0.95;;
21754;SDS011;11039;50.028;19.938;2022-09-01T04:27:38;2.00;;;1.10;;
21754;SDS011;11039;50.028;19.938;2022-09-01T04:30:05;2.45;;;1.20;;
21754;SDS011;11039;50.028;19.938;2022-09-01T04:32:34;1.80;;;1.10;;
21754;SDS011;11039;50.028;19.938;2022-09-01T04:35:02;2.35;;;1.20;;
21754;SDS011;11039;50.028;19.938;2022-09-01T04:37:28;2.15;;;0.98;;
21754;SDS011;11039;50.028;19.938;2022-09-01T04:39:55;2.63;;;1.10;;
21754;SDS011;11039;50.028;19.938;2022-09-01T04:42:22;1.73;;;1.00;;
21754;SDS011;11039;50.028;19.938;2022-09-01T04:44:51;2.20;;;1.13;;
21754;SDS011;11039;50.028;19.938;2022-09-01T04:47:18;1.88;;;1.17;;
21754;SDS011;11039;50.028;19.938;2022-09-01T04:49:53;2.33;;;1.10;;
21754;SDS011;11039;50.028;19.938;2022-09-01T04:52:22;1.17;;;0.93;;
21754;SDS011;11039;50.028;19.938;2022-09-01T04:54:48;1.95;;;0.90;;
21754;SDS011;11039;50.028;19.938;2022-09-01T04:57:14;1.98;;;0.85;;
21754;SDS011;11039;50.028;19.938;2022-09-01T04:59:41;2.22;;;1.25;;
21754;SDS011;11039;50.028;19.938;2022-09-01T05:02:08;3.17;;;1.48;;
21754;SDS011;11039;50.028;19.938;2022-09-01T05:04:34;1.40;;;0.82;;
21754;SDS011;11039;50.028;19.938;2022-09-01T05:07:01;2.08;;;1.23;;
21754;SDS011;11039;50.028;19.938;2022-09-01T05:09:28;1.67;;;0.88;;
21754;SDS011;11039;50.028;19.938;2022-09-01T05:11:55;1.33;;;0.90;;
21754;SDS011;11039;50.028;19.938;2022-09-01T05:14:22;1.48;;;1.00;;
21754;SDS011;11039;50.028;19.938;2022-09-01T05:16:48;1.50;;;0.82;;
21754;SDS011;11039;50.028;19.938;2022-09-01T05:19:15;2.22;;;1.00;;
21754;SDS011;11039;50.028;19.938;2022-09-01T05:21:45;1.10;;;0.82;;
21754;SDS011;11039;50.028;19.938;2022-09-01T05:24:12;1.60;;;0.90;;
21754;SDS011;11039;50.028;19.938;2022-09-01T05:26:39;2.15;;;1.00;;
21754;SDS011;11039;50.028;19.938;2022-09-01T05:29:06;4.78;;;1.67;;
21754;SDS011;11039;50.028;19.938;2022-09-01T05:31:37;4.70;;;1.17;;
21754;SDS011;11039;50.028;19.938;2022-09-01T05:34:04;3.30;;;1.23;;
21754;SDS011;11039;50.028;19.938;2022-09-01T05:36:33;6.97;;;1.52;;
21754;SDS011;11039;50.028;19.938;2022-09-01T05:39:00;4.20;;;2.13;;
21754;SDS011;11039;50.028;19.938;2022-09-01T05:41:27;3.28;;;1.65;;
21754;SDS011;11039;50.028;19.938;2022-09-01T05:43:53;5.22;;;1.83;;
21754;SDS011;11039;50.028;19.938;2022-09-01T05:46:20;5.15;;;1.60;;
21754;SDS011;11039;50.028;19.938;2022-09-01T05:48:47;5.13;;;1.52;;
21754;SDS011;11039;50.028;19.938;2022-09-01T05:51:15;2.83;;;1.30;;
21754;SDS011;11039;50.028;19.938;2022-09-01T05:53:43;9.63;;;1.73;;
21754;SDS011;11039;50.028;19.938;2022-09-01T05:56:10;4.78;;;1.50;;
21754;SDS011;11039;50.028;19.938;2022-09-01T05:58:37;4.88;;;1.70;;
21754;SDS011;11039;50.028;19.938;2022-09-01T06:01:04;6.95;;;1.52;;
21754;SDS011;11039;50.028;19.938;2022-09-01T06:03:30;9.43;;;1.83;;
21754;SDS011;11039;50.028;19.938;2022-09-01T06:06:01;2.63;;;1.38;;
21754;SDS011;11039;50.028;19.938;2022-09-01T06:08:27;7.65;;;1.92;;
21754;SDS011;11039;50.028;19.938;2022-09-01T06:10:53;4.13;;;1.52;;
21754;SDS011;11039;50.028;19.938;2022-09-01T06:13:19;7.60;;;1.48;;
21754;SDS011;11039;50.028;19.938;2022-09-01T06:15:49;4.75;;;2.17;;
21754;SDS011;11039;50.028;19.938;2022-09-01T06:18:17;5.07;;;1.70;;
21754;SDS011;11039;50.028;19.938;2022-09-01T06:20:46;4.00;;;1.40;;
21754;SDS011;11039;50.028;19.938;2022-09-01T06:23:13;5.18;;;1.60;;
21754;SDS011;11039;50.028;19.938;2022-09-01T06:25:41;4.40;;;1.65;;
21754;SDS011;11039;50.028;19.938;2022-09-01T06:28:10;4.47;;;1.58;;
21754;SDS011;11039;50.028;19.938;2022-09-01T06:30:37;5.75;;;2.47;;
21754;SDS011;11039;50.028;19.938;2022-09-01T06:33:04;4.30;;;2.00;;
21754;SDS011;11039;50.028;19.938;2022-09-01T06:35:35;5.93;;;1.60;;
21754;SDS011;11039;50.028;19.938;2022-09-01T06:38:03;3.97;;;1.60;;
21754;SDS011;11039;50.028;19.938;2022-09-01T06:40:30;3.05;;;1.33;;
21754;SDS011;11039;50.028;19.938;2022-09-01T06:42:57;6.18;;;1.35;;
21754;SDS011;11039;50.028;19.938;2022-09-01T06:45:32;5.43;;;1.52;;
21754;SDS011;11039;50.028;19.938;2022-09-01T06:47:58;2.90;;;1.38;;
21754;SDS011;11039;50.028;19.938;2022-09-01T06:50:25;2.58;;;1.17;;
21754;SDS011;11039;50.028;19.938;2022-09-01T06:52:52;4.50;;;1.45;;
21754;SDS011;11039;50.028;19.938;2022-09-01T06:55:25;3.05;;;1.02;;
21754;SDS011;11039;50.028;19.938;2022-09-01T06:57:55;4.57;;;1.20;;
21754;SDS011;11039;50.028;19.938;2022-09-01T07:00:22;2.95;;;1.40;;
21754;SDS011;11039;50.028;19.938;2022-09-01T07:02:53;5.20;;;1.65;;
21754;SDS011;11039;50.028;19.938;2022-09-01T07:05:19;4.15;;;1.42;;
21754;SDS011;11039;50.028;19.938;2022-09-01T07:07:48;8.65;;;2.28;;
21754;SDS011;11039;50.028;19.938;2022-09-01T07:10:15;4.30;;;1.60;;
21754;SDS011;11039;50.028;19.938;2022-09-01T07:12:44;4.35;;;1.30;;
21754;SDS011;11039;50.028;19.938;2022-09-01T07:15:12;5.38;;;1.63;;
21754;SDS011;11039;50.028;19.938;2022-09-01T07:17:41;5.05;;;1.90;;
21754;SDS011;11039;50.028;19.938;2022-09-01T07:20:07;2.65;;;1.25;;
21754;SDS011;11039;50.028;19.938;2022-09-01T07:22:35;4.28;;;1.55;;
21754;SDS011;11039;50.028;19.938;2022-09-01T07:25:01;9.70;;;1.80;;
21754;SDS011;11039;50.028;19.938;2022-09-01T07:27:27;3.53;;;1.40;;
21754;SDS011;11039;50.028;19.938;2022-09-01T07:29:53;21.52;;;2.60;;
21754;SDS011;11039;50.028;19.938;2022-09-01T07:32:21;5.60;;;1.88;;
21754;SDS011;11039;50.028;19.938;2022-09-01T07:34:47;4.15;;;1.98;;
21754;SDS011;11039;50.028;19.938;2022-09-01T07:37:13;4.28;;;2.15;;
21754;SDS011;11039;50.028;19.938;2022-09-01T07:39:39;6.32;;;1.83;;
21754;SDS011;11039;50.028;19.938;2022-09-01T07:42:10;6.40;;;2.05;;
21754;SDS011;11039;50.028;19.938;2022-09-01T07:44:36;5.30;;;1.70;;
21754;SDS011;11039;50.028;19.938;2022-09-01T07:47:02;6.38;;;1.92;;
21754;SDS011;11039;50.028;19.938;2022-09-01T07:49:32;5.85;;;1.52;;
21754;SDS011;11039;50.028;19.938;2022-09-01T07:51:58;3.85;;;1.50;;
21754;SDS011;11039;50.028;19.938;2022-09-01T07:54:27;4.60;;;1.70;;
21754;SDS011;11039;50.028;19.938;2022-09-01T07:56:54;5.35;;;1.67;;
21754;SDS011;11039;50.028;19.938;2022-09-01T07:59:20;5.07;;;1.65;;
21754;SDS011;11039;50.028;19.938;2022-09-01T08:01:46;6.47;;;1.90;;
21754;SDS011;11039;50.028;19.938;2022-09-01T08:04:13;3.88;;;2.05;;
21754;SDS011;11039;50.028;19.938;2022-09-01T08:06:40;6.05;;;1.75;;
21754;SDS011;11039;50.028;19.938;2022-09-01T08:09:07;8.02;;;1.85;;
21754;SDS011;11039;50.028;19.938;2022-09-01T08:11:34;4.80;;;1.70;;
21754;SDS011;11039;50.028;19.938;2022-09-01T08:14:01;5.18;;;1.60;;
21754;SDS011;11039;50.028;19.938;2022-09-01T08:16:29;7.68;;;2.03;;
21754;SDS011;11039;50.028;19.938;2022-09-01T08:18:55;3.55;;;1.65;;
21754;SDS011;11039;50.028;19.938;2022-09-01T08:21:22;3.50;;;1.40;;
21754;SDS011;11039;50.028;19.938;2022-09-01T08:23:50;3.70;;;1.70;;
21754;SDS011;11039;50.028;19.938;2022-09-01T08:26:17;5.57;;;1.70;;
21754;SDS011;11039;50.028;19.938;2022-09-01T08:28:44;8.00;;;2.63;;
21754;SDS011;11039;50.028;19.938;2022-09-01T08:31:12;2.92;;;1.60;;
21754;SDS011;11039;50.028;19.938;2022-09-01T08:33:39;4.78;;;1.75;;
21754;SDS011;11039;50.028;19.938;2022-09-01T08:36:09;4.00;;;1.30;;
21754;SDS011;11039;50.028;19.938;2022-09-01T08:38:35;3.67;;;1.35;;
21754;SDS011;11039;50.028;19.938;2022-09-01T08:41:01;3.25;;;1.00;;
21754;SDS011;11039;50.028;19.938;2022-09-01T08:46:14;4.55;;;1.20;;
21754;SDS011;11039;50.028;19.938;2022-09-01T08:48:43;3.88;;;0.70;;
21754;SDS011;11039;50.028;19.938;2022-09-01T08:53:40;1.98;;;0.93;;
21754;SDS011;11039;50.028;19.938;2022-09-01T08:56:07;3.22;;;0.70;;
21754;SDS011;11039;50.028;19.938;2022-09-01T08:58:34;3.60;;;1.10;;
21754;SDS011;11039;50.028;19.938;2022-09-01T09:01:07;1.42;;;0.80;;
21754;SDS011;11039;50.028;19.938;2022-09-01T09:16:20;1.42;;;0.43;;
21754;SDS011;11039;50.028;19.938;2022-09-01T09:18:59;4.57;;;0.60;;
21754;SDS011;11039;50.028;19.938;2022-09-01T09:21:28;2.55;;;0.75;;
21754;SDS011;11039;50.028;19.938;2022-09-01T09:24:12;3.22;;;0.75;;
21754;SDS011;11039;50.028;19.938;2022-09-01T09:26:40;1.13;;;0.70;;
21754;SDS011;11039;50.028;19.938;2022-09-01T09:29:06;2.05;;;0.60;;
21754;SDS011;11039;50.028;19.938;2022-09-01T09:31:36;0.68;;;0.50;;
21754;SDS011;11039;50.028;19.938;2022-09-01T09:36:51;1.80;;;0.70;;
21754;SDS011;11039;50.028;19.938;2022-09-01T09:39:18;1.65;;;0.40;;
21754;SDS011;11039;50.028;19.938;2022-09-01T09:42:00;0.65;;;0.40;;
21754;SDS011;11039;50.028;19.938;2022-09-01T09:44:28;1.40;;;0.50;;
21754;SDS011;11039;50.028;19.938;2022-09-01T09:46:55;1.30;;;0.77;;
21754;SDS011;11039;50.028;19.938;2022-09-01T09:49:22;1.15;;;0.98;;
21754;SDS011;11039;50.028;19.938;2022-09-01T09:51:53;1.63;;;0.57;;
21754;SDS011;11039;50.028;19.938;2022-09-01T09:54:29;2.20;;;0.73;;
21754;SDS011;11039;50.028;19.938;2022-09-01T10:02:31;1.30;;;0.60;;
21754;SDS011;11039;50.028;19.938;2022-09-01T10:04:59;1.95;;;0.57;;
21754;SDS011;11039;50.028;19.938;2022-09-01T10:07:28;3.08;;;0.70;;
21754;SDS011;11039;50.028;19.938;2022-09-01T10:09:56;5.28;;;0.73;;
21754;SDS011;11039;50.028;19.938;2022-09-01T10:12:23;1.95;;;0.60;;
21754;SDS011;11039;50.028;19.938;2022-09-01T10:14:54;2.08;;;0.47;;
21754;SDS011;11039;50.028;19.938;2022-09-01T10:17:25;3.70;;;0.60;;
21754;SDS011;11039;50.028;19.938;2022-09-01T10:19:55;2.53;;;0.55;;
21754;SDS011;11039;50.028;19.938;2022-09-01T10:22:21;2.10;;;0.50;;
21754;SDS011;11039;50.028;19.938;2022-09-01T10:24:48;6.78;;;0.50;;
21754;SDS011;11039;50.028;19.938;2022-09-01T10:27:24;1.10;;;0.60;;
21754;SDS011;11039;50.028;19.938;2022-09-01T10:30:03;0.75;;;0.40;;
21754;SDS011;11039;50.028;19.938;2022-09-01T10:32:36;2.90;;;0.40;;
21754;SDS011;11039;50.028;19.938;2022-09-01T10:35:03;0.40;;;0.30;;
21754;SDS011;11039;50.028;19.938;2022-09-01T10:37:29;3.78;;;0.93;;
21754;SDS011;11039;50.028;19.938;2022-09-01T10:42:34;1.98;;;0.50;;
21754;SDS011;11039;50.028;19.938;2022-09-01T10:45:00;2.30;;;0.38;;
21754;SDS011;11039;50.028;19.938;2022-09-01T10:47:28;1.85;;;0.40;;
21754;SDS011;11039;50.028;19.938;2022-09-01T10:50:04;1.73;;;0.45;;
21754;SDS011;11039;50.028;19.938;2022-09-01T11:00:45;3.63;;;0.70;;
21754;SDS011;11039;50.028;19.938;2022-09-01T11:08:22;1.98;;;1.02;;
21754;SDS011;11039;50.028;19.938;2022-09-01T11:10:53;2.35;;;0.50;;
21754;SDS011;11039;50.028;19.938;2022-09-01T11:13:35;2.78;;;0.50;;
21754;SDS011;11039;50.028;19.938;2022-09-01T11:18:47;5.22;;;0.50;;
21754;SDS011;11039;50.028;19.938;2022-09-01T11:21:15;2.00;;;0.40;;
21754;SDS011;11039;50.028;19.938;2022-09-01T11:23:42;3.55;;;0.52;;
21754;SDS011;11039;50.028;19.938;2022-09-01T11:28:54;2.17;;;0.50;;
21754;SDS011;11039;50.028;19.938;2022-09-01T11:31:30;1.60;;;0.40;;
21754;SDS011;11039;50.028;19.938;2022-09-01T11:34:11;2.78;;;0.80;;
21754;SDS011;11039;50.028;19.938;2022-09-01T11:44:22;2.47;;;0.80;;
21754;SDS011;11039;50.028;19.938;2022-09-01T11:46:48;2.90;;;1.10;;
21754;SDS011;11039;50.028;19.938;2022-09-01T11:51:57;1.98;;;0.98;;
21754;SDS011;11039;50.028;19.938;2022-09-01T11:54:24;1.17;;;0.70;;
21754;SDS011;11039;50.028;19.938;2022-09-01T11:56:50;2.28;;;0.88;;
21754;SDS011;11039;50.028;19.938;2022-09-01T11:59:29;2.00;;;1.58;;
21754;SDS011;11039;50.028;19.938;2022-09-01T12:01:56;4.65;;;2.15;;
21754;SDS011;11039;50.028;19.938;2022-09-01T12:04:24;4.78;;;1.30;;
21754;SDS011;11039;50.028;19.938;2022-09-01T12:07:02;2.80;;;1.00;;
21754;SDS011;11039;50.028;19.938;2022-09-01T12:09:42;1.13;;;0.80;;
21754;SDS011;11039;50.028;19.938;2022-09-01T12:12:26;2.17;;;1.02;;
21754;SDS011;11039;50.028;19.938;2022-09-01T12:17:32;3.30;;;0.80;;
21754;SDS011;11039;50.028;19.938;2022-09-01T12:22:42;2.92;;;0.63;;
21754;SDS011;11039;50.028;19.938;2022-09-01T12:25:16;1.27;;;0.50;;
21754;SDS011;11039;50.028;19.938;2022-09-01T12:27:43;5.93;;;0.95;;
21754;SDS011;11039;50.028;19.938;2022-09-01T12:30:09;3.08;;;0.90;;
21754;SDS011;11039;50.028;19.938;2022-09-01T12:32:35;3.58;;;0.57;;
21754;SDS011;11039;50.028;19.938;2022-09-01T12:35:03;0.77;;;0.40;;
21754;SDS011;11039;50.028;19.938;2022-09-01T12:37:29;5.60;;;0.60;;
21754;SDS011;11039;50.028;19.938;2022-09-01T12:39:56;2.50;;;0.68;;
21754;SDS011;11039;50.028;19.938;2022-09-01T12:42:29;1.10;;;0.35;;
21754;SDS011;11039;50.028;19.938;2022-09-01T12:44:56;4.78;;;0.80;;
21754;SDS011;11039;50.028;19.938;2022-09-01T12:47:44;1.58;;;0.50;;
21754;SDS011;11039;50.028;19.938;2022-09-01T12:52:45;1.27;;;0.43;;
21754;SDS011;11039;50.028;19.938;2022-09-01T12:55:16;0.88;;;0.43;;
21754;SDS011;11039;50.028;19.938;2022-09-01T12:57:47;0.77;;;0.47;;
21754;SDS011;11039;50.028;19.938;2022-09-01T13:02:45;1.48;;;0.30;;
21754;SDS011;11039;50.028;19.938;2022-09-01T13:05:25;1.35;;;0.43;;
21754;SDS011;11039;50.028;19.938;2022-09-01T13:07:52;0.65;;;0.40;;
21754;SDS011;11039;50.028;19.938;2022-09-01T13:10:19;2.35;;;0.32;;
21754;SDS011;11039;50.028;19.938;2022-09-01T13:12:46;0.95;;;0.52;;
21754;SDS011;11039;50.028;19.938;2022-09-01T13:15:12;6.15;;;0.60;;
21754;SDS011;11039;50.028;19.938;2022-09-01T13:17:38;2.72;;;0.52;;
21754;SDS011;11039;50.028;19.938;2022-09-01T13:20:04;5.88;;;0.40;;
21754;SDS011;11039;50.028;19.938;2022-09-01T13:22:31;3.92;;;0.68;;
21754;SDS011;11039;50.028;19.938;2022-09-01T13:24:57;1.77;;;0.60;;
21754;SDS011;11039;50.028;19.938;2022-09-01T13:27:24;3.13;;;0.40;;
21754;SDS011;11039;50.028;19.938;2022-09-01T13:29:50;0.82;;;0.30;;
21754;SDS011;11039;50.028;19.938;2022-09-01T13:32:16;1.45;;;0.45;;
21754;SDS011;11039;50.028;19.938;2022-09-01T13:34:43;5.25;;;0.50;;
21754;SDS011;11039;50.028;19.938;2022-09-01T13:37:09;2.05;;;0.45;;
21754;SDS011;11039;50.028;19.938;2022-09-01T13:39:35;1.02;;;0.50;;
21754;SDS011;11039;50.028;19.938;2022-09-01T13:42:01;0.85;;;0.38;;
21754;SDS011;11039;50.028;19.938;2022-09-01T13:44:27;0.93;;;0.40;;
21754;SDS011;11039;50.028;19.938;2022-09-01T13:46:53;1.08;;;0.40;;
21754;SDS011;11039;50.028;19.938;2022-09-01T13:49:19;1.42;;;0.47;;
21754;SDS011;11039;50.028;19.938;2022-09-01T13:51:52;0.85;;;0.38;;
21754;SDS011;11039;50.028;19.938;2022-09-01T13:54:18;2.13;;;0.70;;
21754;SDS011;11039;50.028;19.938;2022-09-01T13:56:45;1.05;;;0.35;;
21754;SDS011;11039;50.028;19.938;2022-09-01T13:59:11;0.63;;;0.30;;
21754;SDS011;11039;50.028;19.938;2022-09-01T14:01:37;1.65;;;0.40;;
21754;SDS011;11039;50.028;19.938;2022-09-01T14:04:05;0.95;;;0.43;;
21754;SDS011;11039;50.028;19.938;2022-09-01T14:06:32;0.85;;;0.30;;
21754;SDS011;11039;50.028;19.938;2022-09-01T14:08:58;1.90;;;0.65;;
21754;SDS011;11039;50.028;19.938;2022-09-01T14:11:24;1.33;;;0.50;;
21754;SDS011;11039;50.028;19.938;2022-09-01T14:13:51;0.50;;;0.30;;
21754;SDS011;11039;50.028;19.938;2022-09-01T14:16:17;2.38;;;0.38;;
21754;SDS011;11039;50.028;19.938;2022-09-01T14:18:43;1.95;;;0.35;;
21754;SDS011;11039;50.028;19.938;2022-09-01T14:21:11;2.50;;;0.40;;
21754;SDS011;11039;50.028;19.938;2022-09-01T14:23:38;1.40;;;0.50;;
21754;SDS011;11039;50.028;19.938;2022-09-01T14:26:07;2.22;;;0.60;;
21754;SDS011;11039;50.028;19.938;2022-09-01T14:28:33;2.78;;;0.40;;
21754;SDS011;11039;50.028;19.938;2022-09-01T14:30:59;2.05;;;0.60;;
21754;SDS011;11039;50.028;19.938;2022-09-01T14:33:29;0.90;;;0.45;;
21754;SDS011;11039;50.028;19.938;2022-09-01T14:35:55;1.05;;;0.40;;
21754;SDS011;11039;50.028;19.938;2022-09-01T14:38:22;0.60;;;0.40;;
21754;SDS011;11039;50.028;19.938;2022-09-01T14:40:48;1.85;;;0.40;;
21754;SDS011;11039;50.028;19.938;2022-09-01T14:43:16;2.53;;;0.60;;
21754;SDS011;11039;50.028;19.938;2022-09-01T14:45:42;1.90;;;0.57;;
21754;SDS011;11039;50.028;19.938;2022-09-01T14:48:11;3.47;;;0.40;;
21754;SDS011;11039;50.028;19.938;2022-09-01T14:50:39;0.98;;;0.32;;
21754;SDS011;11039;50.028;19.938;2022-09-01T14:53:05;1.10;;;0.35;;
21754;SDS011;11039;50.028;19.938;2022-09-01T14:55:32;1.67;;;0.73;;
21754;SDS011;11039;50.028;19.938;2022-09-01T14:57:58;1.88;;;0.57;;
21754;SDS011;11039;50.028;19.938;2022-09-01T15:00:25;0.80;;;0.22;;
21754;SDS011;11039;50.028;19.938;2022-09-01T15:02:51;0.80;;;0.40;;
21754;SDS011;11039;50.028;19.938;2022-09-01T15:05:18;2.45;;;0.40;;
21754;SDS011;11039;50.028;19.938;2022-09-01T15:07:44;0.77;;;0.20;;
21754;SDS011;11039;50.028;19.938;2022-09-01T15:10:11;1.42;;;0.38;;
21754;SDS011;11039;50.028;19.938;2022-09-01T15:12:37;4.57;;;0.40;;
21754;SDS011;11039;50.028;19.938;2022-09-01T15:15:03;3.08;;;0.45;;
21754;SDS011;11039;50.028;19.938;2022-09-01T15:17:29;1.75;;;0.73;;
21754;SDS011;11039;50.028;19.938;2022-09-01T15:19:55;1.40;;;0.50;;
21754;SDS011;11039;50.028;19.938;2022-09-01T15:22:44;1.25;;;0.30;;
21754;SDS011;11039;50.028;19.938;2022-09-01T15:25:11;2.15;;;0.50;;
21754;SDS011;11039;50.028;19.938;2022-09-01T15:27:37;0.50;;;0.30;;
21754;SDS011;11039;50.028;19.938;2022-09-01T15:30:03;1.30;;;0.40;;
21754;SDS011;11039;50.028;19.938;2022-09-01T15:32:40;0.60;;;0.30;;
21754;SDS011;11039;50.028;19.938;2022-09-01T15:35:07;1.27;;;0.60;;
21754;SDS011;11039;50.028;19.938;2022-09-01T15:37:33;0.60;;;0.30;;
21754;SDS011;11039;50.028;19.938;2022-09-01T15:39:59;1.00;;;0.30;;
21754;SDS011;11039;50.028;19.938;2022-09-01T15:42:25;1.65;;;0.35;;
21754;SDS011;11039;50.028;19.938;2022-09-01T15:44:52;0.93;;;0.40;;
21754;SDS011;11039;50.028;19.938;2022-09-01T15:47:18;0.73;;;0.40;;
21754;SDS011;11039;50.028;19.938;2022-09-01T15:49:44;0.90;;;0.60;;